Time;durP1;ratioP1;P1;durP2;ratioP2;P2;SDS_P1;SDS_P2;PMS_P1;PMS_P2;Temp;Humidity;BMP_temperature;BMP_pressure;BME280_temperature;BME280_humidity;BME280_pressure;Samples;Min_cycle;Max_cycle;Signal;HPM_P1;HPM_P2
2023/05/08 00:01:22;;;;;;;4.60;4.20;;;20.10;99.90;;;;;;4973821;28;20848;-72
2023/05/08 00:03:48;;;;;;;5.10;4.70;;;20.10;99.90;;;;;;4972804;28;20452;-71
2023/05/08 00:06:15;;;;;;;5.37;4.40;;;20.00;99.90;;;;;;4956829;28;20420;-72
2023/05/08 00:08:43;;;;;;;4.87;4.47;;;20.00;99.90;;;;;;4988962;28;20406;-72
2023/05/08 00:11:09;;;;;;;4.33;3.93;;;20.00;99.90;;;;;;4972774;28;20415;-72
2023/05/08 00:13:39;;;;;;;4.60;4.20;;;20.00;99.90;;;;;;4988711;28;20480;-72
2023/05/08 00:16:08;;;;;;;4.63;4.23;;;20.00;99.90;;;;;;4973651;28;20391;-73
2023/05/08 00:18:36;;;;;;;4.70;4.30;;;20.00;99.90;;;;;;4940502;28;20431;-73
2023/05/08 00:21:02;;;;;;;4.50;4.17;;;20.00;99.90;;;;;;4988807;28;20431;-73
2023/05/08 00:23:28;;;;;;;4.50;4.10;;;20.00;99.90;;;;;;4956437;28;20546;-72
2023/05/08 00:25:56;;;;;;;4.83;4.43;;;20.00;99.90;;;;;;4969042;28;20487;-72
2023/05/08 00:28:22;;;;;;;4.70;4.30;;;20.00;99.90;;;;;;4959753;28;20478;-72
2023/05/08 00:30:48;;;;;;;6.03;4.20;;;20.00;99.90;;;;;;4959668;28;20785;-72
2023/05/08 00:33:14;;;;;;;4.20;3.83;;;19.90;99.90;;;;;;4958345;28;20446;-72
2023/05/08 00:35:42;;;;;;;4.50;3.70;;;19.90;99.90;;;;;;4988771;28;20411;-72
2023/05/08 00:38:10;;;;;;;4.50;4.07;;;19.90;99.90;;;;;;4956451;28;20960;-72
2023/05/08 00:40:36;;;;;;;4.47;4.13;;;19.90;99.90;;;;;;4972174;28;20479;-72
2023/05/08 00:43:02;;;;;;;5.00;4.50;;;19.90;99.90;;;;;;4973431;28;20443;-72
2023/05/08 00:45:35;;;;;;;4.13;3.83;;;19.90;99.90;;;;;;4958073;28;20422;-72
2023/05/08 00:48:02;;;;;;;3.73;3.40;;;19.90;99.90;;;;;;4975979;28;20972;-72
2023/05/08 00:50:35;;;;;;;4.47;4.07;;;19.90;99.90;;;;;;4992188;28;20554;-71
2023/05/08 00:53:03;;;;;;;5.33;4.07;;;19.90;99.90;;;;;;4959824;28;20435;-72
2023/05/08 00:55:31;;;;;;;4.57;4.20;;;19.90;99.90;;;;;;4943856;28;20443;-72
2023/05/08 00:57:58;;;;;;;4.57;4.00;;;19.90;99.90;;;;;;4959747;28;20830;-72
2023/05/08 01:00:24;;;;;;;4.10;3.80;;;19.80;99.90;;;;;;4959517;28;20443;-72
2023/05/08 01:02:50;;;;;;;4.27;3.87;;;19.80;99.90;;;;;;4959384;28;20444;-72
2023/05/08 01:05:16;;;;;;;5.50;4.07;;;19.80;99.90;;;;;;4959586;28;20415;-72
2023/05/08 01:07:43;;;;;;;4.03;3.73;;;19.80;99.90;;;;;;4991784;28;20846;-72
2023/05/08 01:10:09;;;;;;;4.70;4.27;;;19.80;99.90;;;;;;4991830;28;20505;-72
2023/05/08 01:12:53;;;;;;;4.50;4.10;;;19.80;99.90;;;;;;4943380;28;20850;-72
2023/05/08 01:15:36;;;;;;;4.33;3.93;;;19.80;99.90;;;;;;4975303;28;20430;-72
2023/05/08 01:18:08;;;;;;;5.43;4.40;;;19.80;99.90;;;;;;4991671;28;20419;-72
2023/05/08 01:20:35;;;;;;;4.83;3.70;;;19.70;99.90;;;;;;4975136;28;20463;-72
2023/05/08 01:23:35;;;;;;;4.47;4.10;;;19.70;99.90;;;;;;4959044;28;20525;-72
2023/05/08 01:26:38;;;;;;;4.13;3.83;;;19.70;99.90;;;;;;4959282;28;20431;-72
2023/05/08 01:29:08;;;;;;;4.20;3.40;;;19.70;99.90;;;;;;4943448;28;20477;-72
2023/05/08 01:32:09;;;;;;;3.93;3.63;;;19.70;99.90;;;;;;4959013;28;20449;-72
2023/05/08 01:34:45;;;;;;;3.90;3.60;;;19.70;99.90;;;;;;4992690;28;20577;-72
2023/05/08 01:37:15;;;;;;;4.10;3.70;;;19.70;99.90;;;;;;4962433;28;20438;-72
2023/05/08 01:39:56;;;;;;;4.97;3.70;;;19.70;99.90;;;;;;4964219;28;20552;-71
2023/05/08 01:42:27;;;;;;;4.00;3.70;;;19.70;99.90;;;;;;4974860;28;21028;-72
2023/05/08 01:45:04;;;;;;;4.13;3.73;;;19.60;99.90;;;;;;4976434;28;20433;-72
2023/05/08 01:47:37;;;;;;;4.90;4.50;;;19.60;99.90;;;;;;4975991;28;20442;-72
2023/05/08 01:50:13;;;;;;;4.60;4.20;;;19.60;99.90;;;;;;4974687;28;20908;-72
2023/05/08 01:52:51;;;;;;;4.40;3.80;;;19.60;99.90;;;;;;4974555;28;20818;-72
2023/05/08 01:55:24;;;;;;;4.27;3.87;;;19.60;99.90;;;;;;4975896;28;20409;-72
2023/05/08 01:57:53;;;;;;;3.90;3.60;;;19.60;99.90;;;;;;4974453;28;20536;-72
2023/05/08 02:00:21;;;;;;;5.27;3.90;;;19.60;99.90;;;;;;4958406;28;20830;-72
2023/05/08 02:02:49;;;;;;;4.07;3.63;;;19.60;99.90;;;;;;4974510;28;21004;-72
2023/05/08 02:05:15;;;;;;;4.60;4.20;;;19.60;99.90;;;;;;4958492;28;20425;-72
2023/05/08 02:07:46;;;;;;;3.87;3.57;;;19.50;99.90;;;;;;4958623;28;20433;-72
2023/05/08 02:10:14;;;;;;;3.83;3.53;;;19.50;99.90;;;;;;4974241;28;20775;-72
2023/05/08 02:12:42;;;;;;;3.90;3.57;;;19.50;99.90;;;;;;4942476;28;20799;-72
2023/05/08 02:15:11;;;;;;;4.67;3.77;;;19.50;99.90;;;;;;4958414;28;20406;-72
2023/05/08 02:17:43;;;;;;;4.37;3.97;;;19.50;99.90;;;;;;4942403;28;20426;-73
2023/05/08 02:20:13;;;;;;;4.40;4.00;;;19.50;99.90;;;;;;4942210;28;20469;-72
2023/05/08 02:22:44;;;;;;;3.73;3.33;;;19.50;99.90;;;;;;4958647;28;20496;-73
2023/05/08 02:25:13;;;;;;;4.60;3.93;;;19.50;99.90;;;;;;4923268;29;20426;-72
2023/05/08 02:27:44;;;;;;;5.03;4.53;;;19.50;99.90;;;;;;4923179;29;20473;-72
2023/05/08 02:30:14;;;;;;;4.10;3.80;;;19.50;99.90;;;;;;4938900;29;20808;-72
2023/05/08 02:32:43;;;;;;;4.03;3.70;;;19.50;99.90;;;;;;4938532;29;20446;-72
2023/05/08 02:35:20;;;;;;;4.33;3.97;;;19.40;99.90;;;;;;4938873;29;20407;-72
2023/05/08 02:37:52;;;;;;;5.33;4.43;;;19.40;99.90;;;;;;4938683;29;20395;-72
2023/05/08 02:40:20;;;;;;;4.00;3.60;;;19.40;99.90;;;;;;4923091;29;20451;-72
2023/05/08 02:42:48;;;;;;;4.30;3.90;;;19.40;99.90;;;;;;4949448;28;20457;-72
2023/05/08 02:45:15;;;;;;;5.40;3.80;;;19.40;99.90;;;;;;4959036;28;20458;-72
2023/05/08 02:48:00;;;;;;;4.00;3.70;;;19.40;99.90;;;;;;4957689;28;20410;-72
2023/05/08 02:50:32;;;;;;;4.07;3.67;;;19.40;99.90;;;;;;4960936;28;20453;-71
2023/05/08 02:53:08;;;;;;;3.87;3.57;;;19.40;99.90;;;;;;4945723;28;20464;-72
2023/05/08 02:55:53;;;;;;;4.10;3.53;;;19.40;99.90;;;;;;4960810;28;20408;-72
2023/05/08 02:58:30;;;;;;;4.00;3.60;;;19.40;99.90;;;;;;4954515;29;20442;-72
2023/05/08 03:01:18;;;;;;;3.97;3.67;;;19.30;99.90;;;;;;4954239;29;20454;-72
2023/05/08 03:03:51;;;;;;;4.23;3.83;;;19.30;99.90;;;;;;4938308;29;20443;-72
2023/05/08 03:06:23;;;;;;;4.37;4.00;;;19.30;99.90;;;;;;4953960;29;20437;-71
2023/05/08 03:08:52;;;;;;;4.27;3.90;;;19.30;99.90;;;;;;4937883;29;20411;-72
2023/05/08 03:11:23;;;;;;;4.40;4.00;;;19.30;99.90;;;;;;4954125;29;20403;-72
2023/05/08 03:13:54;;;;;;;4.20;3.80;;;19.30;99.90;;;;;;4953749;29;20442;-71
2023/05/08 03:16:24;;;;;;;4.37;3.87;;;19.30;99.90;;;;;;4955077;29;20462;-71
2023/05/08 03:19:02;;;;;;;3.90;3.60;;;19.30;99.90;;;;;;4938013;29;20410;-72
2023/05/08 03:21:31;;;;;;;4.13;3.73;;;19.30;99.90;;;;;;4938280;29;20753;-72
2023/05/08 03:24:03;;;;;;;5.30;4.03;;;19.20;99.90;;;;;;4953819;29;20443;-72
2023/05/08 03:26:30;;;;;;;3.73;3.43;;;19.20;99.90;;;;;;4937907;29;20497;-72
2023/05/08 03:28:59;;;;;;;4.30;3.67;;;19.20;99.90;;;;;;4937898;29;20440;-72
2023/05/08 03:31:31;;;;;;;3.83;3.53;;;19.20;99.90;;;;;;4953684;29;20392;-72
2023/05/08 03:34:01;;;;;;;4.10;3.80;;;19.20;99.90;;;;;;4937782;29;21023;-72
2023/05/08 03:36:27;;;;;;;4.30;3.90;;;19.20;99.90;;;;;;4937993;29;20905;-72
2023/05/08 03:38:55;;;;;;;4.20;3.80;;;19.20;99.90;;;;;;4953494;29;20434;-72
2023/05/08 03:41:25;;;;;;;3.93;3.63;;;19.10;99.90;;;;;;4937759;29;20819;-72
2023/05/08 03:43:52;;;;;;;3.43;3.13;;;19.10;99.90;;;;;;4954733;29;20439;-72
2023/05/08 03:46:19;;;;;;;4.20;3.83;;;19.10;99.90;;;;;;4953768;29;20492;-72
2023/05/08 03:48:49;;;;;;;3.80;3.50;;;19.10;99.90;;;;;;4953545;29;20409;-72
2023/05/08 03:51:17;;;;;;;5.10;3.70;;;19.10;99.90;;;;;;4937597;29;20929;-72
2023/05/08 03:53:43;;;;;;;4.23;3.93;;;19.10;99.90;;;;;;4953447;29;20441;-72
2023/05/08 03:56:10;;;;;;;4.93;3.60;;;19.10;99.90;;;;;;4937576;29;20427;-72
2023/05/08 03:59:08;;;;;;;4.37;4.00;;;19.10;99.90;;;;;;4937683;29;20435;-72
2023/05/08 04:01:39;;;;;;;4.80;3.93;;;19.10;99.90;;;;;;4953512;29;20522;-72
2023/05/08 04:04:16;;;;;;;4.80;4.30;;;19.00;99.90;;;;;;4944337;28;20440;-72
2023/05/08 04:07:00;;;;;;;4.90;4.50;;;19.00;99.90;;;;;;4975840;28;20503;-72
2023/05/08 04:09:41;;;;;;;4.90;4.10;;;19.00;99.90;;;;;;4975920;28;20493;-72
2023/05/08 04:12:26;;;;;;;6.17;4.37;;;19.00;99.90;;;;;;4960820;28;20541;-72
2023/05/08 04:15:03;;;;;;;5.07;4.57;;;19.00;99.90;;;;;;4937650;29;20426;-72
2023/05/08 04:17:41;;;;;;;4.47;4.07;;;19.00;99.90;;;;;;4937400;29;20459;-72
2023/05/08 04:20:14;;;;;;;4.50;4.10;;;19.00;99.90;;;;;;4973587;28;20468;-72
2023/05/08 04:22:44;;;;;;;5.10;4.70;;;19.00;99.90;;;;;;4960360;28;20971;-72
2023/05/08 04:25:11;;;;;;;4.17;3.87;;;18.90;99.90;;;;;;4976519;28;20914;-72
2023/05/08 04:27:42;;;;;;;4.30;4.00;;;18.90;99.90;;;;;;4960676;28;20415;-72
2023/05/08 04:30:09;;;;;;;4.70;4.30;;;18.90;99.90;;;;;;4960577;28;20919;-72
2023/05/08 04:32:39;;;;;;;4.27;3.87;;;18.90;99.90;;;;;;4960325;28;20434;-72
2023/05/08 04:35:06;;;;;;;4.57;4.20;;;18.90;99.90;;;;;;4977571;28;20918;-72
2023/05/08 04:37:32;;;;;;;4.70;4.30;;;18.90;99.90;;;;;;4976274;28;20405;-72
2023/05/08 04:40:01;;;;;;;4.30;3.90;;;18.90;99.90;;;;;;4976292;28;20449;-72
2023/05/08 04:42:29;;;;;;;3.90;3.60;;;18.90;99.90;;;;;;4961909;28;20499;-72
2023/05/08 04:44:57;;;;;;;4.33;3.93;;;18.90;99.90;;;;;;4944246;28;20484;-72
2023/05/08 04:47:24;;;;;;;4.77;3.83;;;18.90;99.90;;;;;;4960030;28;20861;-72
2023/05/08 04:49:55;;;;;;;5.07;4.03;;;18.80;99.90;;;;;;4976130;28;20816;-72
2023/05/08 04:52:24;;;;;;;4.20;3.90;;;18.80;99.90;;;;;;4943979;28;20445;-71
2023/05/08 04:54:53;;;;;;;4.63;4.23;;;18.80;99.90;;;;;;4953169;28;20438;-73
2023/05/08 04:57:21;;;;;;;4.47;3.73;;;18.80;99.90;;;;;;4966897;28;20543;-72
2023/05/08 04:59:49;;;;;;;6.17;4.17;;;18.80;99.90;;;;;;4978575;28;20449;-72
2023/05/08 05:02:20;;;;;;;4.30;3.90;;;18.80;99.90;;;;;;4977825;28;20449;-72
2023/05/08 05:04:47;;;;;;;4.43;3.90;;;18.80;99.90;;;;;;4978541;28;20405;-70
2023/05/08 05:07:13;;;;;;;5.13;4.10;;;18.80;99.90;;;;;;4965762;28;20436;-71
2023/05/08 05:09:39;;;;;;;8.57;4.27;;;18.80;99.90;;;;;;4975762;28;20481;-72
2023/05/08 05:12:07;;;;;;;5.33;4.27;;;18.80;99.90;;;;;;4964411;28;20475;-72
2023/05/08 05:14:36;;;;;;;4.20;3.90;;;18.80;99.90;;;;;;4959967;28;20908;-72
2023/05/08 05:17:02;;;;;;;4.00;3.70;;;18.80;99.90;;;;;;4959500;28;20410;-72
2023/05/08 05:19:28;;;;;;;4.67;4.30;;;18.80;99.90;;;;;;4959368;28;20529;-72
2023/05/08 05:21:55;;;;;;;4.00;3.70;;;18.80;99.90;;;;;;4953452;28;20431;-72
2023/05/08 05:24:21;;;;;;;4.20;3.80;;;18.70;99.90;;;;;;4978735;28;20437;-72
2023/05/08 05:26:47;;;;;;;6.40;4.43;;;18.70;99.90;;;;;;4953681;28;20422;-72
2023/05/08 05:29:13;;;;;;;8.10;4.50;;;18.70;99.90;;;;;;4959394;28;20485;-72
2023/05/08 05:31:39;;;;;;;4.53;3.93;;;18.70;99.90;;;;;;4976173;28;20428;-72
2023/05/08 05:34:05;;;;;;;4.70;4.30;;;18.70;99.90;;;;;;4975423;28;20890;-72
2023/05/08 05:36:31;;;;;;;4.50;4.10;;;18.70;99.90;;;;;;4943352;28;20794;-72
2023/05/08 05:38:57;;;;;;;4.90;4.50;;;18.70;99.90;;;;;;4991417;28;20406;-72
2023/05/08 05:41:28;;;;;;;4.90;4.20;;;18.70;99.90;;;;;;4985401;28;20445;-71
2023/05/08 05:43:54;;;;;;;4.23;3.83;;;18.70;99.90;;;;;;4943454;28;20540;-72
2023/05/08 05:46:20;;;;;;;5.10;4.60;;;18.70;99.90;;;;;;4962487;28;20485;-73
2023/05/08 05:48:46;;;;;;;5.93;4.10;;;18.70;99.90;;;;;;4962429;28;20418;-72
2023/05/08 05:51:13;;;;;;;5.00;4.60;;;18.70;99.90;;;;;;4978285;28;20412;-73
2023/05/08 05:53:41;;;;;;;5.00;4.03;;;18.70;99.90;;;;;;4962293;28;20449;-72
2023/05/08 05:56:07;;;;;;;4.97;4.50;;;18.70;99.90;;;;;;4978031;28;20436;-73
2023/05/08 05:58:34;;;;;;;4.93;4.53;;;18.70;99.90;;;;;;4962271;28;20464;-73
2023/05/08 06:01:00;;;;;;;4.60;4.30;;;18.70;99.90;;;;;;4977888;28;20464;-72
2023/05/08 06:03:29;;;;;;;4.97;4.57;;;18.70;99.90;;;;;;4962049;28;20539;-73
2023/05/08 06:05:55;;;;;;;10.20;5.00;;;18.70;99.90;;;;;;4970768;28;20507;-73
2023/05/08 06:08:21;;;;;;;4.70;4.30;;;18.70;99.90;;;;;;4945938;28;20478;-73
2023/05/08 06:10:48;;;;;;;4.77;4.37;;;18.70;99.90;;;;;;4977982;28;20913;-73
2023/05/08 06:13:17;;;;;;;4.80;4.40;;;18.70;99.90;;;;;;4946328;28;20488;-72
2023/05/08 06:15:43;;;;;;;5.33;4.93;;;18.70;99.90;;;;;;4974599;28;20430;-72
2023/05/08 06:18:09;;;;;;;5.17;4.77;;;18.70;99.90;;;;;;4975787;28;20421;-72
2023/05/08 06:20:38;;;;;;;7.13;4.80;;;18.70;99.90;;;;;;4942186;28;20480;-73
2023/05/08 06:23:06;;;;;;;5.70;5.10;;;18.70;99.90;;;;;;4958321;28;21002;-73
2023/05/08 06:25:32;;;;;;;4.97;4.50;;;18.70;99.90;;;;;;4942446;28;20426;-73
2023/05/08 06:27:58;;;;;;;5.33;4.93;;;18.70;99.90;;;;;;4942575;28;20425;-73
2023/05/08 06:30:27;;;;;;;6.93;5.50;;;18.60;99.90;;;;;;4975458;28;20914;-73
2023/05/08 06:32:52;;;;;;;6.37;5.77;;;18.70;99.90;;;;;;4974487;28;20864;-73
2023/05/08 06:35:19;;;;;;;5.97;5.47;;;18.60;99.90;;;;;;4958226;28;20402;-73
2023/05/08 06:37:47;;;;;;;5.90;5.40;;;18.70;99.90;;;;;;4990559;28;20425;-73
2023/05/08 06:40:13;;;;;;;6.43;5.83;;;18.60;99.90;;;;;;4958055;28;20974;-73
2023/05/08 06:42:43;;;;;;;5.53;5.13;;;18.60;99.90;;;;;;4976569;28;20889;-73
2023/05/08 06:45:17;;;;;;;5.93;5.40;;;18.60;99.90;;;;;;4977611;28;20515;-73
2023/05/08 06:47:43;;;;;;;6.10;5.50;;;18.60;99.90;;;;;;4961354;28;20436;-73
2023/05/08 06:50:12;;;;;;;7.40;5.50;;;18.60;99.90;;;;;;4993848;28;20424;-74
2023/05/08 06:52:39;;;;;;;5.90;5.40;;;18.60;99.90;;;;;;4974847;28;20819;-73
2023/05/08 06:55:05;;;;;;;5.77;5.30;;;18.60;99.90;;;;;;4974977;28;20492;-73
2023/05/08 06:57:33;;;;;;;6.40;5.40;;;18.60;99.90;;;;;;4973709;28;20449;-73
2023/05/08 07:00:02;;;;;;;5.60;5.10;;;18.60;99.90;;;;;;4957706;28;20500;-73
2023/05/08 07:02:28;;;;;;;6.03;5.53;;;18.60;99.90;;;;;;4941730;28;20441;-74
2023/05/08 07:04:57;;;;;;;6.40;5.80;;;18.60;99.90;;;;;;4973828;28;20402;-74
2023/05/08 07:07:27;;;;;;;6.23;5.57;;;18.60;99.90;;;;;;4957804;28;20573;-74
2023/05/08 07:09:56;;;;;;;6.53;5.93;;;18.60;99.90;;;;;;4973981;28;20437;-74
2023/05/08 07:12:24;;;;;;;6.93;5.80;;;18.60;99.90;;;;;;4957567;28;20449;-74
2023/05/08 07:14:52;;;;;;;6.93;6.33;;;18.70;99.90;;;;;;4957762;28;20437;-74
2023/05/08 07:17:21;;;;;;;6.80;6.20;;;18.70;99.90;;;;;;4957600;28;20437;-74
2023/05/08 07:19:50;;;;;;;6.40;5.90;;;18.70;99.90;;;;;;4974697;28;20508;-74
2023/05/08 07:22:16;;;;;;;7.03;6.30;;;18.60;99.90;;;;;;4957450;28;20795;-74
2023/05/08 07:24:45;;;;;;;6.70;6.10;;;18.70;99.90;;;;;;4957873;28;20422;-74
2023/05/08 07:27:13;;;;;;;6.10;5.60;;;18.70;99.90;;;;;;4941552;28;20478;-74
2023/05/08 07:29:40;;;;;;;6.90;6.20;;;18.70;99.90;;;;;;4973442;28;20409;-74
2023/05/08 07:32:08;;;;;;;7.13;5.80;;;18.70;99.90;;;;;;4941535;28;20464;-74
2023/05/08 07:34:39;;;;;;;6.30;5.70;;;18.70;99.90;;;;;;4957369;28;20479;-74
2023/05/08 07:37:05;;;;;;;7.27;6.57;;;18.70;99.90;;;;;;4973400;28;20959;-74
2023/05/08 07:39:31;;;;;;;6.97;6.37;;;18.70;99.90;;;;;;4957228;28;20551;-74
2023/05/08 07:41:57;;;;;;;6.23;5.73;;;18.70;99.90;;;;;;4974974;28;20488;-69
2023/05/08 07:44:26;;;;;;;6.40;5.80;;;18.70;99.90;;;;;;4960547;28;20455;-74
2023/05/08 07:46:55;;;;;;;6.23;5.63;;;18.70;99.90;;;;;;4960488;28;20409;-73
2023/05/08 07:49:26;;;;;;;6.20;5.60;;;18.70;99.90;;;;;;4993773;28;20870;-73
2023/05/08 07:51:55;;;;;;;8.20;7.00;;;18.70;99.90;;;;;;4960148;28;20508;-73
2023/05/08 07:54:21;;;;;;;7.13;6.43;;;18.70;99.90;;;;;;4962051;28;20423;-73
2023/05/08 07:56:47;;;;;;;6.53;5.93;;;18.70;99.90;;;;;;4964411;28;20433;-73
2023/05/08 07:59:13;;;;;;;6.27;5.67;;;18.70;99.90;;;;;;4980223;28;20483;-73
2023/05/08 08:01:41;;;;;;;6.90;6.27;;;18.80;99.90;;;;;;4964336;28;20409;-73
2023/05/08 08:04:07;;;;;;;7.93;7.13;;;18.80;99.90;;;;;;4964258;28;20522;-73
2023/05/08 08:06:33;;;;;;;6.10;5.50;;;18.80;99.90;;;;;;4964292;28;20412;-73
2023/05/08 08:08:59;;;;;;;6.33;5.83;;;18.80;99.90;;;;;;4980043;28;20906;-73
2023/05/08 08:11:27;;;;;;;6.30;5.70;;;18.80;99.90;;;;;;4964455;28;20466;-73
2023/05/08 08:13:58;;;;;;;7.37;6.67;;;18.80;99.90;;;;;;4980084;28;20463;-73
2023/05/08 08:16:31;;;;;;;6.43;5.93;;;18.80;99.90;;;;;;4964567;28;20899;-75
2023/05/08 08:18:58;;;;;;;7.73;7.03;;;18.80;99.90;;;;;;4979908;28;20838;-73
2023/05/08 08:21:27;;;;;;;8.50;7.80;;;18.90;99.90;;;;;;4964028;28;20409;-73
2023/05/08 08:23:56;;;;;;;7.50;6.83;;;18.90;99.90;;;;;;4979736;28;20456;-73
2023/05/08 08:26:22;;;;;;;7.57;6.87;;;18.90;99.90;;;;;;4997347;28;20413;-73
2023/05/08 08:28:48;;;;;;;7.83;6.93;;;18.90;99.90;;;;;;4980079;28;20808;-73
2023/05/08 08:31:15;;;;;;;7.70;6.70;;;18.90;99.90;;;;;;4979875;28;20399;-73
2023/05/08 08:33:43;;;;;;;7.70;6.90;;;19.00;99.90;;;;;;4997039;28;20444;-73
2023/05/08 08:36:13;;;;;;;8.40;6.90;;;19.00;99.90;;;;;;4997175;28;20788;-73
2023/05/08 08:38:41;;;;;;;7.80;6.40;;;19.00;99.90;;;;;;4997131;28;20817;-73
2023/05/08 08:41:07;;;;;;;6.40;5.80;;;19.00;99.90;;;;;;4979618;28;20458;-73
2023/05/08 08:43:34;;;;;;;6.10;5.60;;;19.00;99.90;;;;;;4979704;28;20495;-73
2023/05/08 08:46:10;;;;;;;6.10;5.60;;;19.10;99.90;;;;;;4979684;28;20772;-73
2023/05/08 08:48:40;;;;;;;6.10;5.60;;;19.10;99.90;;;;;;4979598;28;20449;-74
2023/05/08 08:51:13;;;;;;;6.30;5.70;;;19.10;99.90;;;;;;4978935;28;20781;-75
2023/05/08 08:53:45;;;;;;;7.10;6.40;;;19.10;99.90;;;;;;4993092;28;20951;-73
2023/05/08 08:56:16;;;;;;;6.17;5.33;;;19.20;99.90;;;;;;4959917;28;20445;-73
2023/05/08 08:58:58;;;;;;;6.13;5.63;;;19.20;99.90;;;;;;4942218;28;20520;-73
2023/05/08 09:01:27;;;;;;;6.63;5.90;;;19.20;99.90;;;;;;4958726;28;20417;-73
2023/05/08 09:03:59;;;;;;;6.03;4.97;;;19.20;99.90;;;;;;4975705;28;20473;-74
2023/05/08 09:06:26;;;;;;;5.90;5.13;;;19.30;99.90;;;;;;4973686;28;21014;-73
2023/05/08 09:08:56;;;;;;;4.97;4.57;;;19.30;99.90;;;;;;4995220;28;20421;-73
2023/05/08 09:11:26;;;;;;;5.57;5.07;;;19.30;99.90;;;;;;4963123;28;20409;-73
2023/05/08 09:13:56;;;;;;;5.70;5.20;;;19.40;99.90;;;;;;4963092;28;20484;-73
2023/05/08 09:16:27;;;;;;;5.70;5.20;;;19.40;99.90;;;;;;4963148;28;20420;-73
2023/05/08 09:18:55;;;;;;;5.17;4.67;;;19.40;99.90;;;;;;4978975;28;20417;-73
2023/05/08 09:21:23;;;;;;;4.97;4.57;;;19.50;99.90;;;;;;4962631;28;20441;-75
2023/05/08 09:24:02;;;;;;;5.77;5.13;;;19.50;99.90;;;;;;4977382;28;20591;-75
2023/05/08 09:26:33;;;;;;;5.77;5.27;;;19.50;99.90;;;;;;4978709;28;20447;-73
2023/05/08 09:29:15;;;;;;;5.23;4.53;;;19.60;99.90;;;;;;4996390;28;20417;-73
2023/05/08 09:31:46;;;;;;;4.93;4.43;;;19.60;99.90;;;;;;4962827;28;20801;-73
2023/05/08 09:34:29;;;;;;;5.90;5.20;;;19.60;99.90;;;;;;4994542;28;20903;-73
2023/05/08 09:37:11;;;;;;;5.00;4.40;;;19.60;99.90;;;;;;4962224;28;20445;-74
2023/05/08 09:39:42;;;;;;;5.73;5.23;;;19.70;99.90;;;;;;4995889;28;20496;-74
2023/05/08 09:42:09;;;;;;;4.93;4.43;;;19.60;99.90;;;;;;4977651;28;20448;-73
2023/05/08 09:44:51;;;;;;;5.63;5.13;;;19.70;99.90;;;;;;4944931;28;20437;-73
2023/05/08 09:47:22;;;;;;;5.00;4.50;;;19.70;99.90;;;;;;4958651;28;20421;-73
2023/05/08 09:50:03;;;;;;;5.03;4.53;;;19.70;99.90;;;;;;4993877;28;20416;-74
2023/05/08 09:52:32;;;;;;;5.13;4.73;;;19.70;99.90;;;;;;4978421;28;20440;-73
2023/05/08 09:55:06;;;;;;;5.20;4.80;;;19.70;99.90;;;;;;4977945;28;20418;-73
2023/05/08 09:57:38;;;;;;;5.00;4.60;;;19.70;99.90;;;;;;4908274;29;20478;-73
2023/05/08 10:00:13;;;;;;;4.83;4.33;;;19.80;99.90;;;;;;4939217;29;20440;-73
2023/05/08 10:02:57;;;;;;;4.90;4.50;;;19.80;99.90;;;;;;4955184;29;20956;-73
2023/05/08 10:05:25;;;;;;;5.60;5.10;;;19.80;99.90;;;;;;4939541;29;20433;-73
2023/05/08 10:07:51;;;;;;;5.23;4.80;;;19.70;99.90;;;;;;4956505;29;20407;-75
2023/05/08 10:10:29;;;;;;;5.73;5.30;;;19.80;99.90;;;;;;4938075;29;20834;-75
2023/05/08 10:12:57;;;;;;;6.50;5.83;;;19.80;99.90;;;;;;4958276;28;20503;-76
2023/05/08 10:15:27;;;;;;;5.50;5.10;;;19.80;99.90;;;;;;4975477;28;20540;-75
2023/05/08 10:18:02;;;;;;;4.87;4.47;;;19.80;99.90;;;;;;4976525;28;20837;-75
2023/05/08 10:20:31;;;;;;;5.50;5.00;;;19.80;99.90;;;;;;4956390;28;20552;-74
2023/05/08 10:23:00;;;;;;;4.97;4.40;;;19.80;99.90;;;;;;4976588;28;20946;-79
2023/05/08 10:25:33;;;;;;;5.50;5.00;;;19.80;99.90;;;;;;4995186;28;20463;-74
2023/05/08 10:28:23;;;;;;;4.80;4.33;;;19.80;99.90;;;;;;4955895;28;20486;-75
2023/05/08 10:30:50;;;;;;;5.57;5.07;;;19.80;99.90;;;;;;4975278;28;20867;-74
2023/05/08 10:33:24;;;;;;;6.40;5.20;;;19.90;99.90;;;;;;4958087;28;20537;-74
2023/05/08 10:35:57;;;;;;;5.20;4.80;;;19.90;99.90;;;;;;4942234;28;20422;-73
2023/05/08 10:38:24;;;;;;;9.10;6.23;;;19.90;99.90;;;;;;4958073;28;20406;-72
2023/05/08 10:40:56;;;;;;;4.63;4.33;;;19.90;99.90;;;;;;4957863;28;20490;-72
2023/05/08 10:43:28;;;;;;;5.20;4.80;;;19.90;99.90;;;;;;4990397;28;20460;-72
2023/05/08 10:46:00;;;;;;;5.20;4.70;;;19.90;99.90;;;;;;4942153;28;20413;-72
2023/05/08 10:48:59;;;;;;;4.63;4.23;;;19.90;99.90;;;;;;4958059;28;20499;-72
2023/05/08 10:51:39;;;;;;;5.57;5.07;;;19.90;99.90;;;;;;4989522;28;20386;-72
2023/05/08 10:54:12;;;;;;;5.23;4.73;;;19.90;99.90;;;;;;4941770;28;20446;-72
2023/05/08 10:56:39;;;;;;;6.33;5.73;;;19.90;99.90;;;;;;4957761;28;20831;-72
2023/05/08 10:59:05;;;;;;;5.57;5.17;;;20.00;99.90;;;;;;4973842;28;20482;-72
2023/05/08 11:01:37;;;;;;;5.83;5.37;;;20.00;99.90;;;;;;4990074;28;20470;-72
2023/05/08 11:04:21;;;;;;;5.87;5.27;;;20.00;99.90;;;;;;4957714;28;20474;-72
2023/05/08 11:06:51;;;;;;;4.80;4.40;;;20.00;99.90;;;;;;4957569;28;20409;-72
2023/05/08 11:09:28;;;;;;;5.57;5.07;;;20.00;99.90;;;;;;4987336;28;20445;-72
2023/05/08 11:12:30;;;;;;;6.00;5.57;;;20.00;99.90;;;;;;4993454;28;20445;-72
2023/05/08 11:15:06;;;;;;;5.63;5.13;;;20.10;99.90;;;;;;4975813;28;20431;-72
2023/05/08 11:17:32;;;;;;;6.03;5.53;;;20.10;99.90;;;;;;4969560;28;20406;-72
2023/05/08 11:20:01;;;;;;;5.90;5.40;;;20.00;99.90;;;;;;4956097;28;20453;-72
2023/05/08 11:22:32;;;;;;;6.50;5.90;;;20.10;99.90;;;;;;4955920;28;20448;-72
2023/05/08 11:25:11;;;;;;;6.50;5.90;;;20.10;99.90;;;;;;4989276;28;20822;-72
2023/05/08 11:28:00;;;;;;;5.80;5.30;;;20.10;99.90;;;;;;4975225;28;20934;-72
2023/05/08 11:30:36;;;;;;;5.90;5.40;;;20.10;99.90;;;;;;4974971;28;20519;-72
2023/05/08 11:33:02;;;;;;;6.20;5.70;;;20.20;99.90;;;;;;4983854;28;20956;-72
2023/05/08 11:35:46;;;;;;;5.20;4.70;;;20.20;99.90;;;;;;4971666;28;20422;-72
2023/05/08 11:38:37;;;;;;;6.13;5.63;;;20.20;99.90;;;;;;4956002;28;20418;-71
2023/05/08 11:41:04;;;;;;;6.03;5.43;;;20.20;99.90;;;;;;4955205;28;20451;-74
2023/05/08 11:43:37;;;;;;;6.30;5.70;;;20.30;99.90;;;;;;4989817;28;20825;-72
2023/05/08 11:46:15;;;;;;;5.50;5.00;;;20.30;99.90;;;;;;4943309;28;20425;-71
2023/05/08 11:48:44;;;;;;;5.90;5.40;;;20.30;99.90;;;;;;4941205;28;20459;-71
2023/05/08 11:51:16;;;;;;;5.43;4.93;;;20.30;99.90;;;;;;4974134;28;20476;-71
2023/05/08 11:53:43;;;;;;;5.60;5.20;;;20.30;99.90;;;;;;4959325;28;20987;-71
2023/05/08 11:56:09;;;;;;;6.03;5.53;;;20.40;99.90;;;;;;4975421;28;20430;-72
2023/05/08 11:58:37;;;;;;;6.97;5.67;;;20.40;99.90;;;;;;4992646;28;20413;-71
2023/05/08 12:01:05;;;;;;;4.90;4.50;;;20.40;99.90;;;;;;4975527;28;20856;-71
2023/05/08 12:03:31;;;;;;;5.90;5.40;;;20.40;99.90;;;;;;4975007;28;20450;-71
2023/05/08 12:06:02;;;;;;;5.37;4.97;;;20.40;99.90;;;;;;4944021;28;20774;-72
2023/05/08 12:08:28;;;;;;;5.40;5.00;;;20.50;99.90;;;;;;4980070;28;20498;-71
2023/05/08 12:10:59;;;;;;;5.00;4.60;;;20.50;99.90;;;;;;4989272;28;20923;-71
2023/05/08 12:13:31;;;;;;;4.97;4.47;;;20.50;99.90;;;;;;4963022;28;20477;-72
2023/05/08 12:16:00;;;;;;;5.80;5.30;;;20.50;99.90;;;;;;4973131;28;20431;-71
2023/05/08 12:18:28;;;;;;;5.27;4.77;;;20.60;99.90;;;;;;4956103;28;20476;-71
2023/05/08 12:21:03;;;;;;;5.77;5.03;;;20.60;99.90;;;;;;4956447;28;20447;-72
2023/05/08 12:23:31;;;;;;;4.83;4.50;;;20.60;99.90;;;;;;4940001;28;20513;-71
2023/05/08 12:26:00;;;;;;;4.83;4.50;;;20.60;99.90;;;;;;4956490;28;20522;-71
2023/05/08 12:28:33;;;;;;;5.50;5.10;;;20.60;99.90;;;;;;4955986;28;20403;-71
2023/05/08 12:31:02;;;;;;;6.90;5.07;;;20.70;99.90;;;;;;4940024;28;20435;-72
2023/05/08 12:33:31;;;;;;;5.00;4.60;;;20.70;99.90;;;;;;4985391;28;21061;-72
2023/05/08 12:36:04;;;;;;;5.13;4.73;;;20.70;99.90;;;;;;4959374;28;20406;-72
2023/05/08 12:38:30;;;;;;;5.10;4.70;;;20.70;99.90;;;;;;4975271;28;20425;-72
2023/05/08 12:40:56;;;;;;;5.60;5.10;;;20.70;99.90;;;;;;4982018;28;20537;-72
2023/05/08 12:43:33;;;;;;;5.07;4.67;;;20.70;99.90;;;;;;4992004;28;20481;-71
2023/05/08 12:46:00;;;;;;;5.40;5.00;;;20.80;99.90;;;;;;4953998;28;20963;-71
2023/05/08 12:48:29;;;;;;;5.07;4.67;;;20.80;99.90;;;;;;4962680;28;20436;-71
2023/05/08 12:51:04;;;;;;;5.00;4.60;;;20.80;99.90;;;;;;4964894;28;20423;-71
2023/05/08 12:53:31;;;;;;;5.00;4.50;;;20.80;99.90;;;;;;4959363;28;20443;-72
2023/05/08 12:56:03;;;;;;;4.70;4.30;;;20.80;99.80;;;;;;4943202;28;20454;-71
2023/05/08 12:58:32;;;;;;;5.60;5.10;;;20.80;99.80;;;;;;4959430;28;20419;-72
2023/05/08 13:01:10;;;;;;;4.70;4.23;;;20.80;99.80;;;;;;4959125;28;20455;-71
2023/05/08 13:03:37;;;;;;;5.13;4.60;;;20.90;99.70;;;;;;4976169;28;20455;-71
2023/05/08 13:06:06;;;;;;;5.10;4.70;;;20.90;99.70;;;;;;4952951;28;20858;-72